createdAt,value
2022-08-17T00:02:25.531Z,101084.38
2022-08-17T00:04:54.105Z,101077.63
2022-08-17T00:07:20.681Z,101077.78
2022-08-17T00:09:47.261Z,101080.03
2022-08-17T00:12:43.465Z,101075.78
2022-08-17T00:15:01.127Z,101069.50
2022-08-17T00:17:27.981Z,101069.06
2022-08-17T00:19:54.602Z,101062.31
2022-08-17T00:22:32.649Z,101074.69
2022-08-17T00:25:08.077Z,101072.28
2022-08-17T00:27:35.217Z,101067.66
2022-08-17T00:30:01.880Z,101061.19
2022-08-17T00:33:16.082Z,101058.19
2022-08-17T00:35:18.473Z,101052.22
2022-08-17T00:37:45.507Z,101053.56
2022-08-17T00:40:14.621Z,101048.81
2022-08-17T00:42:43.418Z,101054.06
2022-08-17T00:45:12.815Z,101049.94
2022-08-17T00:47:40.256Z,101053.25
2022-08-17T00:50:12.019Z,101053.31
2022-08-17T00:52:45.875Z,101050.88
2022-08-17T00:55:12.827Z,101057.97
2022-08-17T00:57:44.667Z,101046.81
2022-08-17T01:00:21.416Z,101033.88
2022-08-17T01:02:48.743Z,101023.19
2022-08-17T01:05:19.518Z,101021.88
2022-08-17T01:07:49.397Z,101024.50
2022-08-17T01:10:57.501Z,101021.78
2022-08-17T01:13:04.599Z,101036.03
2022-08-17T01:15:37.165Z,101033.31
2022-08-17T01:18:07.846Z,101026.78
2022-08-17T01:20:48.159Z,101022.44
2022-08-17T01:23:16.406Z,101025.63
2022-08-17T01:25:50.994Z,101023.59
2022-08-17T01:28:53.449Z,101018.84
2022-08-17T01:31:06.237Z,101028.34
2022-08-17T01:33:33.206Z,101034.94
2022-08-17T01:36:00.751Z,101026.47
2022-08-17T01:38:31.737Z,101029.72
2022-08-17T01:41:05.857Z,101029.34
2022-08-17T01:43:39.093Z,101029.56
2022-08-17T01:46:06.042Z,101029.06
2022-08-17T01:48:34.885Z,101031.56
2022-08-17T01:51:01.576Z,101026.53
2022-08-17T01:53:36.721Z,101027.97
2022-08-17T01:56:09.443Z,101029.59
2022-08-17T01:58:37.111Z,101023.06
2022-08-17T02:01:05.619Z,101017.16
2022-08-17T02:03:34.558Z,101020.81
2022-08-17T02:06:02.309Z,101022.53
2022-08-17T02:08:39.300Z,101023.56
2022-08-17T02:11:21.117Z,101031.84
2022-08-17T02:13:57.958Z,101038.97
2022-08-17T02:16:36.902Z,101059.09
2022-08-17T02:19:08.130Z,101063.63
2022-08-17T02:21:36.775Z,101069.16
2022-08-17T02:24:05.434Z,101086.44
2022-08-17T02:26:32.156Z,101075.56
2022-08-17T02:28:58.722Z,101061.41
2022-08-17T02:31:25.271Z,101048.56
2022-08-17T02:34:00.469Z,101053.19
2022-08-17T02:36:34.851Z,101052.06
2022-08-17T02:39:04.769Z,101047.75
2022-08-17T02:41:31.714Z,101050.09
2022-08-17T02:43:58.659Z,101044.63
2022-08-17T02:46:25.905Z,101044.88
2022-08-17T02:48:52.441Z,101045.09
2022-08-17T02:51:18.976Z,101051.47
2022-08-17T02:53:46.761Z,101044.81
2022-08-17T02:56:13.429Z,101042.16
2022-08-17T02:58:40.078Z,101038.59
2022-08-17T03:01:08.593Z,101038.81
2022-08-17T03:03:36.687Z,101036.88
2022-08-17T03:06:04.189Z,101040.00
2022-08-17T03:08:30.993Z,101032.34
2022-08-17T03:10:57.656Z,101030.69
2022-08-17T03:13:24.505Z,101032.25
2022-08-17T03:15:51.447Z,101035.31
2022-08-17T03:18:25.565Z,101028.47
2022-08-17T03:20:59.169Z,101030.50
2022-08-17T03:23:27.443Z,101029.75
2022-08-17T03:25:54.654Z,101024.91
2022-08-17T03:28:22.341Z,101022.34
2022-08-17T03:30:51.159Z,101023.69
2022-08-17T03:33:18.611Z,101013.94
2022-08-17T03:35:45.200Z,101009.69
2022-08-17T03:38:15.056Z,101005.91
2022-08-17T03:40:56.236Z,101016.91
2022-08-17T03:43:30.773Z,101022.69
2022-08-17T03:46:28.582Z,101031.31
2022-08-17T03:49:20.199Z,101039.19
2022-08-17T03:52:05.339Z,101053.84
2022-08-17T03:54:50.265Z,101060.94
2022-08-17T03:57:17.156Z,101068.09
2022-08-17T03:59:45.144Z,101072.97
2022-08-17T04:02:17.488Z,101064.41
2022-08-17T04:04:44.753Z,101066.31
2022-08-17T04:07:11.575Z,101064.28
2022-08-17T04:09:38.194Z,101062.91
2022-08-17T04:12:05.307Z,101072.81
2022-08-17T04:14:51.571Z,101069.91
2022-08-17T04:17:24.694Z,101066.94
2022-08-17T04:19:51.316Z,101061.16
2022-08-17T04:22:30.099Z,101060.38
2022-08-17T04:25:01.588Z,101047.88
2022-08-17T04:27:28.174Z,101056.59
2022-08-17T04:29:56.131Z,101053.69
2022-08-17T04:33:02.246Z,101060.00
2022-08-17T04:35:09.995Z,101066.19
2022-08-17T04:37:36.553Z,101060.59
2022-08-17T04:40:22.314Z,101067.84
2022-08-17T04:43:20.938Z,101062.22
2022-08-17T04:45:57.114Z,101062.63
2022-08-17T04:48:51.546Z,101062.47
2022-08-17T04:51:28.067Z,101062.97
2022-08-17T04:53:58.090Z,101058.09
2022-08-17T04:56:26.419Z,101060.78
2022-08-17T04:58:55.230Z,101060.25
2022-08-17T05:01:24.647Z,101066.38
2022-08-17T05:03:56.409Z,101061.16
2022-08-17T05:06:23.976Z,101063.56
2022-08-17T05:08:51.010Z,101062.66
2022-08-17T05:11:18.201Z,101070.75
2022-08-17T05:13:44.849Z,101067.28
2022-08-17T05:16:12.044Z,101070.03
2022-08-17T05:18:39.146Z,101064.16
2022-08-17T05:21:06.957Z,101070.63
2022-08-17T05:23:41.956Z,101066.47
2022-08-17T05:26:25.909Z,101069.63
2022-08-17T05:28:54.678Z,101069.47
2022-08-17T05:31:24.591Z,101060.72
2022-08-17T05:33:51.261Z,101061.59
2022-08-17T05:36:43.579Z,101063.72
2022-08-17T05:39:04.539Z,101053.59
2022-08-17T05:41:31.141Z,101053.94
2022-08-17T05:43:57.671Z,101057.72
2022-08-17T05:46:27.565Z,101060.59
2022-08-17T05:48:59.098Z,101053.06
2022-08-17T05:52:08.815Z,101058.03
2022-08-17T05:54:54.349Z,101064.50
2022-08-17T05:58:04.032Z,101060.50
2022-08-17T06:00:42.130Z,101071.50
2022-08-17T06:03:46.504Z,101071.31
2022-08-17T06:06:33.933Z,101085.34
2022-08-17T06:09:35.014Z,101071.16
2022-08-17T06:12:21.542Z,101071.09
2022-08-17T06:15:19.476Z,101079.00
2022-08-17T06:17:46.312Z,101083.44
2022-08-17T06:20:15.541Z,101090.78
2022-08-17T06:22:50.894Z,101084.00
2022-08-17T06:25:23.350Z,101080.28
2022-08-17T06:27:55.746Z,101095.56
2022-08-17T06:30:28.403Z,101103.44
2022-08-17T06:33:07.589Z,101097.13
2022-08-17T06:35:49.012Z,101093.72
2022-08-17T06:38:36.965Z,101105.75
2022-08-17T06:41:29.848Z,101100.84
2022-08-17T06:44:43.723Z,101110.03
2022-08-17T06:47:11.126Z,101095.38
2022-08-17T06:50:02.462Z,101108.59
2022-08-17T06:52:56.058Z,101114.31
2022-08-17T06:55:27.564Z,101102.59
2022-08-17T06:57:59.989Z,101090.72
2022-08-17T07:00:40.778Z,101103.50
2022-08-17T07:03:25.967Z,101112.72
2022-08-17T07:05:58.921Z,101101.50
2022-08-17T07:08:50.608Z,101106.88
2022-08-17T07:11:23.640Z,101100.91
2022-08-17T07:14:22.639Z,101095.06
2022-08-17T07:16:52.620Z,101094.59
2022-08-17T07:19:22.605Z,101091.69
2022-08-17T07:21:58.155Z,101090.31
2022-08-17T07:24:38.375Z,101107.69
2022-08-17T07:27:25.145Z,101102.53
2022-08-17T07:30:10.640Z,101106.31
2022-08-17T07:32:57.861Z,101125.38
2022-08-17T07:35:31.206Z,101130.78
2022-08-17T07:38:24.762Z,101130.53
2022-08-17T07:40:57.763Z,101125.44
2022-08-17T07:43:47.023Z,101128.72
2022-08-17T07:46:37.444Z,101125.47
2022-08-17T07:49:03.882Z,101125.72
2022-08-17T07:51:45.825Z,101130.31
2022-08-17T07:54:15.416Z,101129.41
2022-08-17T07:57:00.529Z,101134.94
2022-08-17T07:59:33.530Z,101130.53
2022-08-17T08:02:07.225Z,101118.25
2022-08-17T08:04:59.799Z,101120.78
2022-08-17T08:07:34.832Z,101130.63
2022-08-17T08:10:04.521Z,101130.28
2022-08-17T08:12:46.930Z,101130.41
2022-08-17T08:15:13.810Z,101143.25
2022-08-17T08:17:55.670Z,101145.03
2022-08-17T08:20:52.349Z,101152.22
2022-08-17T08:23:29.581Z,101155.84
2022-08-17T08:26:06.736Z,101167.25
2022-08-17T08:28:47.167Z,101163.25
2022-08-17T08:31:44.324Z,101165.97
2022-08-17T08:35:00.836Z,101175.13
2022-08-17T08:37:30.376Z,101183.69
2022-08-17T08:40:20.317Z,101170.84
2022-08-17T08:43:00.996Z,101163.44
2022-08-17T08:45:56.699Z,101167.91
2022-08-17T08:49:14.610Z,101167.16
2022-08-17T08:51:55.489Z,101154.00
2022-08-17T08:54:37.248Z,101158.41
2022-08-17T08:57:27.800Z,101173.00
2022-08-17T09:00:15.751Z,101161.81
2022-08-17T09:03:17.615Z,101166.41
2022-08-17T09:06:32.479Z,101187.94
2022-08-17T09:09:45.359Z,101213.63
2022-08-17T09:12:21.335Z,101248.94
2022-08-17T09:15:18.008Z,101261.22
2022-08-17T09:19:01.333Z,101255.81
2022-08-17T09:21:08.069Z,101247.81
2022-08-17T09:23:44.754Z,101210.38
2022-08-17T09:26:26.311Z,101166.81
2022-08-17T09:29:00.299Z,101158.97
2022-08-17T09:31:49.257Z,101145.53
2022-08-17T09:34:22.244Z,101141.38
2022-08-17T09:37:20.647Z,101116.50
2022-08-17T09:40:08.650Z,101100.91
2022-08-17T09:42:49.497Z,101081.34
2022-08-17T09:45:22.133Z,101092.22
2022-08-17T09:48:12.418Z,101099.03
2022-08-17T09:51:05.788Z,101114.44
2022-08-17T09:53:35.822Z,101118.38
2022-08-17T09:56:11.387Z,101123.06
2022-08-17T09:58:47.690Z,101135.00
2022-08-17T10:01:17.303Z,101136.00
2022-08-17T10:04:05.062Z,101141.25
2022-08-17T10:06:41.748Z,101136.63
2022-08-17T10:09:37.260Z,101136.09
2022-08-17T10:12:47.160Z,101159.03
2022-08-17T10:15:21.928Z,101165.97
2022-08-17T10:18:03.786Z,101170.25
2022-08-17T10:20:39.277Z,101176.16
2022-08-17T10:23:32.877Z,101195.47
2022-08-17T10:26:07.069Z,101199.38
2022-08-17T10:28:42.197Z,101204.16
2022-08-17T10:34:27.877Z,101201.72
2022-08-17T10:37:04.737Z,101216.78
2022-08-17T10:40:08.954Z,101211.88
2022-08-17T10:42:46.139Z,101221.91
2022-08-17T10:45:26.235Z,101217.28
2022-08-17T10:48:24.712Z,101223.34
2022-08-17T10:51:08.748Z,101229.03
2022-08-17T10:53:35.209Z,101244.06
2022-08-17T10:56:14.341Z,101257.72
2022-08-17T10:58:57.385Z,101266.69
2022-08-17T11:01:33.238Z,101270.91
2022-08-17T11:04:18.520Z,101288.13
2022-08-17T11:07:02.301Z,101291.59
2022-08-17T11:10:33.503Z,101283.19
2022-08-17T11:13:18.407Z,101274.25
2022-08-17T11:16:08.218Z,101258.06
2022-08-17T11:19:22.182Z,101258.00
2022-08-17T11:22:07.290Z,101272.56
2022-08-17T11:24:33.720Z,101272.03
2022-08-17T11:27:23.471Z,101254.16
2022-08-17T11:30:01.531Z,101260.28
2022-08-17T11:32:48.630Z,101261.69
2022-08-17T11:35:21.760Z,101274.53
2022-08-17T11:38:19.373Z,101264.69
2022-08-17T11:40:51.919Z,101259.03
2022-08-17T11:43:25.551Z,101263.94
2022-08-17T11:45:58.310Z,101263.00
2022-08-17T11:48:56.695Z,101258.63
2022-08-17T11:51:33.912Z,101243.84
2022-08-17T11:54:33.366Z,101238.34
2022-08-17T11:57:26.458Z,101226.28
2022-08-17T12:00:10.515Z,101226.34
2022-08-17T12:03:16.483Z,101243.63
2022-08-17T12:05:44.371Z,101251.97
2022-08-17T12:08:16.552Z,101249.34
2022-08-17T12:11:03.295Z,101238.47
2022-08-17T12:13:39.821Z,101238.31
2022-08-17T12:16:08.286Z,101237.78
2022-08-17T12:18:37.599Z,101227.28
2022-08-17T12:21:22.518Z,101232.19
2022-08-17T12:24:01.335Z,101231.91
2022-08-17T12:26:34.275Z,101238.78
2022-08-17T12:29:18.363Z,101233.88
2022-08-17T12:32:02.321Z,101231.81
2022-08-17T12:34:36.522Z,101237.00
2022-08-17T12:37:08.275Z,101227.81
2022-08-17T12:39:34.930Z,101230.75
2022-08-17T12:42:02.834Z,101241.19
2022-08-17T12:44:32.813Z,101250.72
2022-08-17T12:47:04.786Z,101251.53
2022-08-17T12:49:36.630Z,101252.66
2022-08-17T12:52:06.551Z,101243.94
2022-08-17T12:54:53.658Z,101247.97
2022-08-17T12:57:22.691Z,101252.81
2022-08-17T12:59:54.442Z,101259.19
2022-08-17T13:02:30.139Z,101247.44
2022-08-17T13:04:59.360Z,101255.31
2022-08-17T13:07:32.668Z,101251.25
2022-08-17T13:09:59.273Z,101253.91
2022-08-17T13:12:31.612Z,101240.69
2022-08-17T13:14:58.846Z,101234.25
2022-08-17T13:17:28.106Z,101234.00
2022-08-17T13:19:54.811Z,101242.75
2022-08-17T13:22:25.080Z,101235.97
2022-08-17T13:24:56.095Z,101240.00
2022-08-17T13:27:25.186Z,101237.66
2022-08-17T13:29:57.206Z,101240.75
2022-08-17T13:32:40.446Z,101240.84
2022-08-17T13:35:39.214Z,101239.25
2022-08-17T13:38:11.017Z,101234.78
2022-08-17T13:40:53.254Z,101237.88
2022-08-17T13:43:48.589Z,101233.50
2022-08-17T13:46:25.180Z,101230.16
2022-08-17T13:49:11.516Z,101241.59
2022-08-17T13:51:47.025Z,101239.69
2022-08-17T13:54:25.290Z,101229.63
2022-08-17T13:57:02.498Z,101238.63
2022-08-17T13:59:53.485Z,101225.91
2022-08-17T14:02:25.941Z,101224.94
2022-08-17T14:04:54.973Z,101224.41
2022-08-17T14:07:29.769Z,101227.72
2022-08-17T14:10:17.452Z,101228.25
2022-08-17T14:12:45.656Z,101219.03
2022-08-17T14:15:15.616Z,101215.75
2022-08-17T14:17:42.239Z,101208.63
2022-08-17T14:20:12.179Z,101199.66
2022-08-17T14:22:43.934Z,101196.41
2022-08-17T14:25:13.039Z,101202.28
2022-08-17T14:27:41.743Z,101201.50
2022-08-17T14:30:22.963Z,101185.06
2022-08-17T14:32:52.108Z,101182.44
2022-08-17T14:35:22.061Z,101182.91
2022-08-17T14:37:49.563Z,101183.66
2022-08-17T14:40:16.993Z,101180.94
2022-08-17T14:42:46.033Z,101191.97
2022-08-17T14:45:30.471Z,101194.22
2022-08-17T14:48:00.004Z,101197.97
2022-08-17T14:50:27.236Z,101187.16
2022-08-17T14:52:56.361Z,101173.19
2022-08-17T14:55:25.017Z,101172.72
2022-08-17T14:57:51.775Z,101174.03
2022-08-17T15:00:18.685Z,101167.47
2022-08-17T15:02:50.934Z,101168.09
2022-08-17T15:05:17.529Z,101170.88
2022-08-17T15:07:44.649Z,101167.63
2022-08-17T15:10:13.736Z,101177.22
2022-08-17T15:12:40.864Z,101168.97
2022-08-17T15:15:10.546Z,101163.00
2022-08-17T15:17:44.206Z,101167.63
2022-08-17T15:20:26.394Z,101173.69
2022-08-17T15:22:56.128Z,101178.63
2022-08-17T15:25:25.455Z,101172.53
2022-08-17T15:27:52.647Z,101187.31
2022-08-17T15:30:20.258Z,101184.66
2022-08-17T15:32:54.388Z,101187.56
2022-08-17T15:35:27.235Z,101190.91
2022-08-17T15:37:56.979Z,101184.63
2022-08-17T15:40:23.554Z,101184.50
2022-08-17T15:42:51.137Z,101186.31
2022-08-17T15:45:22.574Z,101178.69
2022-08-17T15:47:49.377Z,101192.09
2022-08-17T15:50:16.034Z,101195.13
2022-08-17T15:52:44.911Z,101186.41
2022-08-17T15:55:14.764Z,101184.28
2022-08-17T15:57:41.326Z,101196.19
2022-08-17T16:00:09.387Z,101187.41
2022-08-17T16:03:13.703Z,101194.97
2022-08-17T16:05:25.187Z,101187.41
2022-08-17T16:07:53.187Z,101184.63
2022-08-17T16:10:21.072Z,101173.13
2022-08-17T16:12:49.806Z,101180.28
2022-08-17T16:15:18.291Z,101187.00
2022-08-17T16:17:45.148Z,101178.16
2022-08-17T16:20:20.169Z,101185.94
2022-08-17T16:22:48.780Z,101179.00
2022-08-17T16:25:19.963Z,101183.06
2022-08-17T16:27:48.865Z,101183.81
2022-08-17T16:30:17.629Z,101185.41
2022-08-17T16:32:44.461Z,101185.94
2022-08-17T16:35:14.365Z,101188.81
2022-08-17T16:37:41.758Z,101184.84
2022-08-17T16:40:13.014Z,101180.81
2022-08-17T16:42:40.172Z,101188.03
2022-08-17T16:45:18.778Z,101180.50
2022-08-17T16:47:45.410Z,101186.00
2022-08-17T16:50:15.627Z,101178.16
2022-08-17T16:52:43.597Z,101190.22
2022-08-17T16:55:13.235Z,101199.88
2022-08-17T16:57:47.480Z,101197.75
2022-08-17T17:00:17.686Z,101196.59
2022-08-17T17:02:47.325Z,101207.25
2022-08-17T17:05:38.322Z,101208.47
2022-08-17T17:08:09.221Z,101204.47
2022-08-17T17:10:40.345Z,101188.59
2022-08-17T17:13:20.999Z,101192.44
2022-08-17T17:15:55.612Z,101190.09
2022-08-17T17:18:31.147Z,101186.13
2022-08-17T17:20:58.827Z,101181.69
2022-08-17T17:23:37.317Z,101189.66
2022-08-17T17:26:19.179Z,101192.22
2022-08-17T17:29:18.356Z,101194.66
2022-08-17T17:31:59.795Z,101199.53
2022-08-17T17:34:29.674Z,101202.72
2022-08-17T17:37:00.330Z,101212.66
2022-08-17T17:39:55.810Z,101217.53
2022-08-17T17:42:28.314Z,101212.22
2022-08-17T17:45:09.266Z,101214.16
2022-08-17T17:47:36.496Z,101205.06
2022-08-17T17:50:06.158Z,101204.13
2022-08-17T17:52:47.974Z,101204.56
2022-08-17T17:55:39.572Z,101200.91
2022-08-17T17:58:21.038Z,101205.25
2022-08-17T18:01:19.359Z,101206.00
2022-08-17T18:03:55.037Z,101219.94
2022-08-17T18:06:33.339Z,101223.03
2022-08-17T18:09:22.506Z,101225.13
2022-08-17T18:12:08.781Z,101222.47
2022-08-17T18:15:00.919Z,101227.16
2022-08-17T18:17:29.899Z,101220.75
2022-08-17T18:19:56.739Z,101217.75
2022-08-17T18:22:23.960Z,101225.09
2022-08-17T18:24:56.017Z,101225.19
2022-08-17T18:27:40.769Z,101232.91
2022-08-17T18:30:13.351Z,101236.84
2022-08-17T18:32:42.512Z,101237.75
2022-08-17T18:35:09.112Z,101245.59
2022-08-17T18:38:08.057Z,101249.63
2022-08-17T18:40:37.489Z,101241.34
2022-08-17T18:43:26.952Z,101257.44
2022-08-17T18:45:55.991Z,101253.69
2022-08-17T18:48:25.508Z,101250.06
2022-08-17T18:50:56.114Z,101244.00
2022-08-17T18:53:33.536Z,101252.13
2022-08-17T18:56:30.679Z,101243.91
2022-08-17T18:59:04.184Z,101244.25
2022-08-17T19:02:01.895Z,101242.66
2022-08-17T19:04:42.621Z,101242.19
2022-08-17T19:07:22.194Z,101251.38
2022-08-17T19:09:54.846Z,101254.63
2022-08-17T19:12:50.264Z,101253.50
2022-08-17T19:15:35.543Z,101268.03
2022-08-17T19:18:18.413Z,101279.50
2022-08-17T19:20:49.689Z,101269.09
2022-08-17T19:23:27.687Z,101281.59
2022-08-17T19:26:00.739Z,101280.91
2022-08-17T19:28:30.018Z,101279.97
2022-08-17T19:30:59.590Z,101280.41
2022-08-17T19:33:26.539Z,101288.25
2022-08-17T19:36:43.129Z,101298.47
2022-08-17T19:39:43.265Z,101308.22
2022-08-17T19:42:31.191Z,101320.53
2022-08-17T19:45:15.910Z,101317.72
2022-08-17T19:48:12.470Z,101330.59
2022-08-17T19:50:48.356Z,101322.78
2022-08-17T19:53:24.058Z,101319.22
2022-08-17T19:56:03.010Z,101317.75
2022-08-17T19:59:01.394Z,101320.38
2022-08-17T20:01:44.934Z,101317.25
2022-08-17T20:04:20.968Z,101311.06
2022-08-17T20:06:52.908Z,101313.69
2022-08-17T20:09:33.616Z,101297.72
2022-08-17T20:12:09.713Z,101296.56
2022-08-17T20:14:41.750Z,101301.13
2022-08-17T20:17:23.635Z,101290.09
2022-08-17T20:20:07.552Z,101288.19
2022-08-17T20:23:01.326Z,101272.69
2022-08-17T20:25:39.266Z,101273.53
2022-08-17T20:28:28.793Z,101273.28
2022-08-17T20:30:59.596Z,101281.31
2022-08-17T20:33:31.544Z,101274.78
2022-08-17T20:36:22.517Z,101283.84
2022-08-17T20:38:54.220Z,101278.19
2022-08-17T20:41:29.656Z,101284.63
2022-08-17T20:43:59.218Z,101283.16
2022-08-17T20:46:32.771Z,101283.06
2022-08-17T20:49:08.629Z,101277.38
2022-08-17T20:52:00.777Z,101275.09
2022-08-17T20:54:47.779Z,101283.47
2022-08-17T20:57:44.138Z,101284.06
2022-08-17T21:00:17.270Z,101284.34
2022-08-17T21:02:52.072Z,101285.56
2022-08-17T21:05:35.302Z,101288.84
2022-08-17T21:08:15.679Z,101297.97
2022-08-17T21:10:45.678Z,101297.94
2022-08-17T21:13:15.458Z,101297.28
2022-08-17T21:15:42.200Z,101288.94
2022-08-17T21:18:17.237Z,101296.88
2022-08-17T21:20:43.683Z,101303.25
2022-08-17T21:23:42.952Z,101301.81
2022-08-17T21:26:30.397Z,101300.00
2022-08-17T21:29:29.702Z,101302.09
2022-08-17T21:32:17.066Z,101310.00
2022-08-17T21:35:07.293Z,101316.38
2022-08-17T21:37:44.213Z,101323.19
2022-08-17T21:40:10.783Z,101319.50
2022-08-17T21:43:00.291Z,101326.72
2022-08-17T21:45:32.032Z,101336.25
2022-08-17T21:48:19.910Z,101339.25
2022-08-17T21:50:57.538Z,101340.38
2022-08-17T21:53:38.144Z,101341.53
2022-08-17T21:56:06.642Z,101340.91
2022-08-17T21:58:40.188Z,101347.47
2022-08-17T22:01:23.873Z,101336.38
2022-08-17T22:04:05.624Z,101343.84
2022-08-17T22:06:43.205Z,101349.88
2022-08-17T22:09:50.131Z,101336.59
2022-08-17T22:12:22.238Z,101334.06
2022-08-17T22:15:01.004Z,101324.50
2022-08-17T22:17:29.198Z,101322.19
2022-08-17T22:20:00.030Z,101321.59
2022-08-17T22:22:56.310Z,101314.59
2022-08-17T22:25:25.409Z,101318.69
2022-08-17T22:27:56.564Z,101316.88
2022-08-17T22:30:39.539Z,101323.66
2022-08-17T22:33:37.304Z,101349.00
2022-08-17T22:36:24.716Z,101348.22
2022-08-17T22:39:02.408Z,101352.66
2022-08-17T22:41:48.144Z,101356.34
2022-08-17T22:44:15.185Z,101348.38
2022-08-17T22:46:58.762Z,101343.19
2022-08-17T22:49:30.758Z,101346.94
2022-08-17T22:52:07.936Z,101346.53
2022-08-17T22:54:52.981Z,101354.13
2022-08-17T22:57:41.832Z,101348.13
2022-08-17T23:00:29.448Z,101351.13
2022-08-17T23:03:18.995Z,101353.78
2022-08-17T23:06:07.266Z,101349.63
2022-08-17T23:08:37.085Z,101346.28
2022-08-17T23:11:06.251Z,101352.34
2022-08-17T23:13:33.542Z,101358.78
2022-08-17T23:16:00.144Z,101365.59
2022-08-17T23:18:27.396Z,101363.34
2022-08-17T23:20:54.290Z,101361.91
2022-08-17T23:23:23.704Z,101351.38
2022-08-17T23:25:50.634Z,101354.38
2022-08-17T23:28:17.140Z,101354.38
2022-08-17T23:30:44.737Z,101357.06
2022-08-17T23:33:38.687Z,101360.84
2022-08-17T23:36:09.834Z,101348.00
2022-08-17T23:38:36.713Z,101352.59
2022-08-17T23:41:10.813Z,101349.97
2022-08-17T23:43:54.543Z,101336.03
2022-08-17T23:46:25.030Z,101342.16
2022-08-17T23:48:54.040Z,101336.09
2022-08-17T23:51:25.006Z,101335.34
2022-08-17T23:53:56.730Z,101345.16
2022-08-17T23:56:26.302Z,101356.91
2022-08-17T23:59:01.483Z,101350.88
